sensor_id;sensor_type;location;lat;lon;timestamp;pressure;altitude;pressure_sealevel;temperature;humidity
18858;BME280;9558;50.178;8.370;2023-10-31T00:01:10;96476.50;;;11.77;100.00
18858;BME280;9558;50.178;8.370;2023-10-31T00:03:57;96479.91;;;11.78;100.00
18858;BME280;9558;50.178;8.370;2023-10-31T00:06:43;96482.34;;;11.72;100.00
18858;BME280;9558;50.178;8.370;2023-10-31T00:09:30;96490.91;;;11.73;100.00
18858;BME280;9558;50.178;8.370;2023-10-31T00:12:18;96491.25;;;11.65;100.00
18858;BME280;9558;50.178;8.370;2023-10-31T00:15:05;96487.09;;;11.64;100.00
18858;BME280;9558;50.178;8.370;2023-10-31T00:17:52;96492.72;;;11.61;100.00
18858;BME280;9558;50.178;8.370;2023-10-31T00:20:39;96499.69;;;11.60;100.00
18858;BME280;9558;50.178;8.370;2023-10-31T00:23:25;96493.94;;;11.58;100.00
18858;BME280;9558;50.178;8.370;2023-10-31T00:26:12;96495.41;;;11.54;100.00
18858;BME280;9558;50.178;8.370;2023-10-31T00:29:01;96489.75;;;11.57;100.00
18858;BME280;9558;50.178;8.370;2023-10-31T00:31:47;96485.41;;;11.57;100.00
18858;BME280;9558;50.178;8.370;2023-10-31T00:34:34;96496.16;;;11.54;100.00
18858;BME280;9558;50.178;8.370;2023-10-31T00:37:21;96500.66;;;11.47;100.00
18858;BME280;9558;50.178;8.370;2023-10-31T00:40:08;96500.66;;;11.47;100.00
18858;BME280;9558;50.178;8.370;2023-10-31T00:42:56;96507.88;;;11.45;100.00
18858;BME280;9558;50.178;8.370;2023-10-31T00:45:45;96513.38;;;11.49;100.00
18858;BME280;9558;50.178;8.370;2023-10-31T00:48:32;96522.41;;;11.46;100.00
18858;BME280;9558;50.178;8.370;2023-10-31T00:51:21;96523.41;;;11.45;100.00
18858;BME280;9558;50.178;8.370;2023-10-31T00:54:08;96527.25;;;11.43;100.00
18858;BME280;9558;50.178;8.370;2023-10-31T00:56:55;96525.44;;;11.43;100.00
18858;BME280;9558;50.178;8.370;2023-10-31T00:59:41;96523.41;;;11.45;100.00
18858;BME280;9558;50.178;8.370;2023-10-31T01:02:29;96525.00;;;11.46;100.00
18858;BME280;9558;50.178;8.370;2023-10-31T01:05:16;96538.19;;;11.45;100.00
18858;BME280;9558;50.178;8.370;2023-10-31T01:08:03;96531.63;;;11.42;100.00
18858;BME280;9558;50.178;8.370;2023-10-31T01:10:50;96538.38;;;11.43;100.00
18858;BME280;9558;50.178;8.370;2023-10-31T01:13:37;96538.97;;;11.45;100.00
18858;BME280;9558;50.178;8.370;2023-10-31T01:16:24;96535.22;;;11.41;100.00
18858;BME280;9558;50.178;8.370;2023-10-31T01:19:12;96526.31;;;11.37;100.00
18858;BME280;9558;50.178;8.370;2023-10-31T01:21:58;96533.16;;;11.31;100.00
18858;BME280;9558;50.178;8.370;2023-10-31T01:24:45;96536.41;;;11.27;100.00
18858;BME280;9558;50.178;8.370;2023-10-31T01:27:32;96556.00;;;11.22;100.00
18858;BME280;9558;50.178;8.370;2023-10-31T01:30:19;96543.94;;;11.16;100.00
18858;BME280;9558;50.178;8.370;2023-10-31T01:33:06;96537.00;;;11.10;100.00
18858;BME280;9558;50.178;8.370;2023-10-31T01:35:54;96539.50;;;11.05;100.00
18858;BME280;9558;50.178;8.370;2023-10-31T01:38:40;96547.69;;;11.02;100.00
18858;BME280;9558;50.178;8.370;2023-10-31T01:41:27;96553.16;;;10.94;100.00
18858;BME280;9558;50.178;8.370;2023-10-31T01:44:14;96557.63;;;10.86;100.00
18858;BME280;9558;50.178;8.370;2023-10-31T01:47:01;96559.50;;;10.79;100.00
18858;BME280;9558;50.178;8.370;2023-10-31T01:49:47;96561.72;;;10.76;100.00
18858;BME280;9558;50.178;8.370;2023-10-31T01:52:36;96562.94;;;10.73;100.00
18858;BME280;9558;50.178;8.370;2023-10-31T01:55:24;96566.53;;;10.72;100.00
18858;BME280;9558;50.178;8.370;2023-10-31T01:58:13;96565.22;;;10.63;100.00
18858;BME280;9558;50.178;8.370;2023-10-31T02:01:03;96569.41;;;10.64;100.00
18858;BME280;9558;50.178;8.370;2023-10-31T02:03:50;96568.25;;;10.60;100.00
18858;BME280;9558;50.178;8.370;2023-10-31T02:06:37;96573.84;;;10.57;100.00
18858;BME280;9558;50.178;8.370;2023-10-31T02:09:25;96588.38;;;10.58;100.00
18858;BME280;9558;50.178;8.370;2023-10-31T02:12:32;96586.22;;;10.54;100.00
18858;BME280;9558;50.178;8.370;2023-10-31T02:15:19;96585.41;;;10.54;100.00
18858;BME280;9558;50.178;8.370;2023-10-31T02:18:07;96585.41;;;10.54;100.00
18858;BME280;9558;50.178;8.370;2023-10-31T02:20:54;96590.81;;;10.52;100.00
18858;BME280;9558;50.178;8.370;2023-10-31T02:23:42;96577.31;;;10.50;100.00
18858;BME280;9558;50.178;8.370;2023-10-31T02:26:29;96570.09;;;10.52;100.00
18858;BME280;9558;50.178;8.370;2023-10-31T02:29:16;96572.34;;;10.49;100.00
18858;BME280;9558;50.178;8.370;2023-10-31T02:32:03;96564.78;;;10.47;100.00
18858;BME280;9558;50.178;8.370;2023-10-31T02:34:50;96569.22;;;10.40;100.00
18858;BME280;9558;50.178;8.370;2023-10-31T02:37:37;96570.88;;;10.34;100.00
18858;BME280;9558;50.178;8.370;2023-10-31T02:40:25;96564.38;;;10.25;100.00
18858;BME280;9558;50.178;8.370;2023-10-31T02:43:12;96567.00;;;10.18;100.00
18858;BME280;9558;50.178;8.370;2023-10-31T02:45:58;96571.44;;;10.11;100.00
18858;BME280;9558;50.178;8.370;2023-10-31T02:48:45;96573.28;;;10.04;100.00
18858;BME280;9558;50.178;8.370;2023-10-31T02:51:32;96568.53;;;10.01;100.00
18858;BME280;9558;50.178;8.370;2023-10-31T02:54:18;96589.84;;;9.96;100.00
18858;BME280;9558;50.178;8.370;2023-10-31T02:57:07;96604.97;;;9.93;100.00
18858;BME280;9558;50.178;8.370;2023-10-31T02:59:54;96601.44;;;9.87;100.00
18858;BME280;9558;50.178;8.370;2023-10-31T03:02:40;96590.72;;;9.83;100.00
18858;BME280;9558;50.178;8.370;2023-10-31T03:05:27;96600.88;;;9.78;100.00
18858;BME280;9558;50.178;8.370;2023-10-31T03:08:14;96593.34;;;9.77;100.00
18858;BME280;9558;50.178;8.370;2023-10-31T03:11:05;96601.94;;;9.71;100.00
18858;BME280;9558;50.178;8.370;2023-10-31T03:13:53;96604.13;;;9.67;100.00
18858;BME280;9558;50.178;8.370;2023-10-31T03:16:42;96608.13;;;9.63;100.00
18858;BME280;9558;50.178;8.370;2023-10-31T03:19:28;96610.34;;;9.59;100.00
18858;BME280;9558;50.178;8.370;2023-10-31T03:22:15;96609.19;;;9.55;100.00
18858;BME280;9558;50.178;8.370;2023-10-31T03:25:03;96620.69;;;9.52;100.00
18858;BME280;9558;50.178;8.370;2023-10-31T03:27:49;96623.69;;;9.49;100.00
18858;BME280;9558;50.178;8.370;2023-10-31T03:30:38;96631.25;;;9.51;100.00
18858;BME280;9558;50.178;8.370;2023-10-31T03:33:24;96640.56;;;9.52;100.00
18858;BME280;9558;50.178;8.370;2023-10-31T03:36:11;96640.94;;;9.56;100.00
18858;BME280;9558;50.178;8.370;2023-10-31T03:38:58;96649.72;;;9.55;100.00
18858;BME280;9558;50.178;8.370;2023-10-31T03:41:44;96647.28;;;9.60;100.00
18858;BME280;9558;50.178;8.370;2023-10-31T03:44:32;96651.25;;;9.62;100.00
18858;BME280;9558;50.178;8.370;2023-10-31T03:47:20;96655.63;;;9.62;100.00
18858;BME280;9558;50.178;8.370;2023-10-31T03:50:09;96657.19;;;9.63;100.00
18858;BME280;9558;50.178;8.370;2023-10-31T03:52:55;96664.34;;;9.67;100.00
18858;BME280;9558;50.178;8.370;2023-10-31T03:55:42;96665.53;;;9.65;100.00
18858;BME280;9558;50.178;8.370;2023-10-31T03:58:29;96673.44;;;9.70;100.00
18858;BME280;9558;50.178;8.370;2023-10-31T04:01:16;96677.00;;;9.76;100.00
18858;BME280;9558;50.178;8.370;2023-10-31T04:04:05;96687.75;;;9.73;100.00
18858;BME280;9558;50.178;8.370;2023-10-31T04:06:52;96688.16;;;9.76;100.00
18858;BME280;9558;50.178;8.370;2023-10-31T04:09:38;96683.56;;;9.78;100.00
18858;BME280;9558;50.178;8.370;2023-10-31T04:12:26;96690.13;;;9.74;100.00
18858;BME280;9558;50.178;8.370;2023-10-31T04:15:12;96688.16;;;9.76;100.00
18858;BME280;9558;50.178;8.370;2023-10-31T04:17:59;96686.13;;;9.78;100.00
18858;BME280;9558;50.178;8.370;2023-10-31T04:20:48;96686.56;;;9.75;100.00
18858;BME280;9558;50.178;8.370;2023-10-31T04:23:34;96690.94;;;9.75;100.00
18858;BME280;9558;50.178;8.370;2023-10-31T04:26:21;96697.47;;;9.77;100.00
18858;BME280;9558;50.178;8.370;2023-10-31T04:29:08;96696.88;;;9.82;100.00
18858;BME280;9558;50.178;8.370;2023-10-31T04:31:55;96707.56;;;9.85;100.00
18858;BME280;9558;50.178;8.370;2023-10-31T04:34:42;96711.53;;;9.88;100.00
18858;BME280;9558;50.178;8.370;2023-10-31T04:37:31;96706.38;;;9.88;100.00
18858;BME280;9558;50.178;8.370;2023-10-31T04:40:18;96715.50;;;9.91;100.00
18858;BME280;9558;50.178;8.370;2023-10-31T04:43:04;96715.09;;;9.94;100.00
18858;BME280;9558;50.178;8.370;2023-10-31T04:45:51;96709.91;;;9.94;100.00
18858;BME280;9558;50.178;8.370;2023-10-31T04:48:38;96713.06;;;9.96;100.00
18858;BME280;9558;50.178;8.370;2023-10-31T04:51:25;96717.84;;;9.99;100.00
18858;BME280;9558;50.178;8.370;2023-10-31T04:54:13;96706.91;;;9.97;100.00
18858;BME280;9558;50.178;8.370;2023-10-31T04:56:59;96707.72;;;9.97;100.00
18858;BME280;9558;50.178;8.370;2023-10-31T04:59:46;96710.66;;;10.01;100.00
18858;BME280;9558;50.178;8.370;2023-10-31T05:02:33;96715.47;;;9.97;100.00
18858;BME280;9558;50.178;8.370;2023-10-31T05:05:20;96721.00;;;10.01;100.00
18858;BME280;9558;50.178;8.370;2023-10-31T05:08:07;96721.44;;;9.98;100.00
18858;BME280;9558;50.178;8.370;2023-10-31T05:10:56;96722.63;;;9.95;100.00
18858;BME280;9558;50.178;8.370;2023-10-31T05:13:43;96723.81;;;9.93;100.00
18858;BME280;9558;50.178;8.370;2023-10-31T05:16:30;96723.81;;;9.93;100.00
18858;BME280;9558;50.178;8.370;2023-10-31T05:19:17;96721.84;;;9.95;100.00
18858;BME280;9558;50.178;8.370;2023-10-31T05:22:03;96722.84;;;9.94;100.00
18858;BME280;9558;50.178;8.370;2023-10-31T05:24:50;96721.84;;;9.95;100.00
18858;BME280;9558;50.178;8.370;2023-10-31T05:27:38;96722.00;;;10.00;100.00
18858;BME280;9558;50.178;8.370;2023-10-31T05:30:25;96720.44;;;9.99;100.00
18858;BME280;9558;50.178;8.370;2023-10-31T05:33:14;96722.41;;;9.97;100.00
18858;BME280;9558;50.178;8.370;2023-10-31T05:36:01;96722.41;;;9.97;100.00
18858;BME280;9558;50.178;8.370;2023-10-31T05:38:48;96722.22;;;9.98;100.00
18858;BME280;9558;50.178;8.370;2023-10-31T05:41:35;96731.91;;;10.03;100.00
18858;BME280;9558;50.178;8.370;2023-10-31T05:44:23;96738.69;;;10.04;100.00
18858;BME280;9558;50.178;8.370;2023-10-31T05:47:10;96739.09;;;10.01;100.00
18858;BME280;9558;50.178;8.370;2023-10-31T05:49:56;96755.03;;;9.98;100.00
18858;BME280;9558;50.178;8.370;2023-10-31T05:52:43;96750.44;;;10.00;100.00
18858;BME280;9558;50.178;8.370;2023-10-31T05:55:30;96746.47;;;9.97;100.00
18858;BME280;9558;50.178;8.370;2023-10-31T05:58:17;96749.44;;;10.01;100.00
18858;BME280;9558;50.178;8.370;2023-10-31T06:01:05;96750.84;;;9.97;100.00
18858;BME280;9558;50.178;8.370;2023-10-31T06:03:52;96756.81;;;9.97;100.00
18858;BME280;9558;50.178;8.370;2023-10-31T06:06:39;96759.00;;;9.94;100.00
18858;BME280;9558;50.178;8.370;2023-10-31T06:09:26;96766.34;;;9.97;100.00
18858;BME280;9558;50.178;8.370;2023-10-31T06:12:13;96767.72;;;9.99;100.00
18858;BME280;9558;50.178;8.370;2023-10-31T06:14:59;96758.19;;;10.00;100.00
18858;BME280;9558;50.178;8.370;2023-10-31T06:17:47;96767.53;;;10.01;100.00
18858;BME280;9558;50.178;8.370;2023-10-31T06:20:34;96772.88;;;10.06;100.00
18858;BME280;9558;50.178;8.370;2023-10-31T06:23:21;96774.22;;;10.09;100.00
18858;BME280;9558;50.178;8.370;2023-10-31T06:26:08;96769.28;;;10.07;100.00
18858;BME280;9558;50.178;8.370;2023-10-31T06:28:55;96781.22;;;10.08;100.00
18858;BME280;9558;50.178;8.370;2023-10-31T06:31:42;96795.31;;;10.06;100.00
18858;BME280;9558;50.178;8.370;2023-10-31T06:34:30;96806.88;;;10.03;100.00
18858;BME280;9558;50.178;8.370;2023-10-31T06:37:16;96799.53;;;10.00;100.00
18858;BME280;9558;50.178;8.370;2023-10-31T06:40:04;96813.63;;;10.04;100.00
18858;BME280;9558;50.178;8.370;2023-10-31T06:42:51;96820.63;;;9.97;100.00
18858;BME280;9558;50.178;8.370;2023-10-31T06:45:38;96820.19;;;10.00;100.00
18858;BME280;9558;50.178;8.370;2023-10-31T06:48:25;96822.78;;;10.00;100.00
18858;BME280;9558;50.178;8.370;2023-10-31T06:51:13;96833.94;;;10.00;100.00
18858;BME280;9558;50.178;8.370;2023-10-31T06:54:03;96834.31;;;10.04;100.00
18858;BME280;9558;50.178;8.370;2023-10-31T06:56:49;96836.28;;;10.09;100.00
18858;BME280;9558;50.178;8.370;2023-10-31T06:59:36;96845.41;;;10.11;100.00
18858;BME280;9558;50.178;8.370;2023-10-31T07:02:23;96850.38;;;10.13;100.00
18858;BME280;9558;50.178;8.370;2023-10-31T07:05:11;96851.75;;;10.15;100.00
18858;BME280;9558;50.178;8.370;2023-10-31T07:07:59;96848.59;;;10.13;100.00
18858;BME280;9558;50.178;8.370;2023-10-31T07:10:46;96850.78;;;10.16;100.00
18858;BME280;9558;50.178;8.370;2023-10-31T07:13:32;96858.13;;;10.19;100.00
18858;BME280;9558;50.178;8.370;2023-10-31T07:16:19;96863.50;;;10.18;100.00
18858;BME280;9558;50.178;8.370;2023-10-31T07:19:06;96864.91;;;10.14;100.00
18858;BME280;9558;50.178;8.370;2023-10-31T07:21:52;96876.00;;;10.14;100.00
18858;BME280;9558;50.178;8.370;2023-10-31T07:24:41;96872.84;;;10.12;100.00
18858;BME280;9558;50.178;8.370;2023-10-31T07:27:28;96867.28;;;10.09;100.00
18858;BME280;9558;50.178;8.370;2023-10-31T07:30:15;96874.25;;;10.08;100.00
18858;BME280;9558;50.178;8.370;2023-10-31T07:33:02;96879.63;;;10.13;100.00
18858;BME280;9558;50.178;8.370;2023-10-31T07:35:48;96877.25;;;10.12;100.00
18858;BME280;9558;50.178;8.370;2023-10-31T07:38:36;96882.78;;;10.09;100.00
18858;BME280;9558;50.178;8.370;2023-10-31T07:41:24;96885.56;;;10.14;100.00
18858;BME280;9558;50.178;8.370;2023-10-31T07:44:11;96895.13;;;10.13;100.00
18858;BME280;9558;50.178;8.370;2023-10-31T07:46:58;96889.97;;;10.13;100.00
18858;BME280;9558;50.178;8.370;2023-10-31T07:49:45;96886.97;;;10.10;100.00
18858;BME280;9558;50.178;8.370;2023-10-31T07:52:32;96901.28;;;10.12;100.00
18858;BME280;9558;50.178;8.370;2023-10-31T07:55:19;96898.91;;;10.11;100.00
18858;BME280;9558;50.178;8.370;2023-10-31T07:58:07;96900.47;;;10.18;100.00
18858;BME280;9558;50.178;8.370;2023-10-31T08:00:55;96892.72;;;10.18;100.00
18858;BME280;9558;50.178;8.370;2023-10-31T08:03:42;96899.47;;;10.19;100.00
18858;BME280;9558;50.178;8.370;2023-10-31T08:06:29;96891.72;;;10.26;100.00
18858;BME280;9558;50.178;8.370;2023-10-31T08:09:16;96899.66;;;10.25;100.00
18858;BME280;9558;50.178;8.370;2023-10-31T08:12:03;96907.81;;;10.21;100.00
18858;BME280;9558;50.178;8.370;2023-10-31T08:14:51;96917.75;;;10.25;100.00
18858;BME280;9558;50.178;8.370;2023-10-31T08:17:38;96918.53;;;10.32;100.00
18858;BME280;9558;50.178;8.370;2023-10-31T08:20:24;96923.34;;;10.35;100.00
18858;BME280;9558;50.178;8.370;2023-10-31T08:23:12;96923.72;;;10.32;100.00
18858;BME280;9558;50.178;8.370;2023-10-31T08:25:58;96926.69;;;10.35;100.00
18858;BME280;9558;50.178;8.370;2023-10-31T08:28:45;96928.09;;;10.38;100.00
18858;BME280;9558;50.178;8.370;2023-10-31T08:31:33;96930.88;;;10.43;100.00
18858;BME280;9558;50.178;8.370;2023-10-31T08:34:20;96940.41;;;10.43;100.00
18858;BME280;9558;50.178;8.370;2023-10-31T08:37:07;96934.78;;;10.52;100.00
18858;BME280;9558;50.178;8.370;2023-10-31T08:39:53;96943.56;;;10.51;100.00
18858;BME280;9558;50.178;8.370;2023-10-31T08:42:40;96948.34;;;10.54;100.00
18858;BME280;9558;50.178;8.370;2023-10-31T08:45:27;96949.25;;;10.67;100.00
18858;BME280;9558;50.178;8.370;2023-10-31T08:48:16;96948.63;;;10.71;100.00
18858;BME280;9558;50.178;8.370;2023-10-31T08:51:03;96956.38;;;10.78;100.00
18858;BME280;9558;50.178;8.370;2023-10-31T08:53:49;96962.53;;;10.84;100.00
18858;BME280;9558;50.178;8.370;2023-10-31T08:56:36;96967.69;;;10.91;100.00
18858;BME280;9558;50.178;8.370;2023-10-31T08:59:23;96975.25;;;10.85;100.00
18858;BME280;9558;50.178;8.370;2023-10-31T09:02:10;96974.25;;;10.93;100.00
18858;BME280;9558;50.178;8.370;2023-10-31T09:04:58;96979.38;;;11.00;100.00
18858;BME280;9558;50.178;8.370;2023-10-31T09:07:45;96978.16;;;11.02;100.00
18858;BME280;9558;50.178;8.370;2023-10-31T09:10:32;96985.16;;;11.02;100.00
18858;BME280;9558;50.178;8.370;2023-10-31T09:13:19;96988.31;;;11.04;100.00
18858;BME280;9558;50.178;8.370;2023-10-31T09:16:06;96986.31;;;11.06;100.00
18858;BME280;9558;50.178;8.370;2023-10-31T09:18:53;96992.31;;;11.00;100.00
18858;BME280;9558;50.178;8.370;2023-10-31T09:21:41;97001.03;;;11.05;100.00
18858;BME280;9558;50.178;8.370;2023-10-31T09:24:28;97007.81;;;11.06;100.00
18858;BME280;9558;50.178;8.370;2023-10-31T09:27:15;97010.19;;;11.08;100.00
18858;BME280;9558;50.178;8.370;2023-10-31T09:30:02;97015.97;;;11.10;100.00
18858;BME280;9558;50.178;8.370;2023-10-31T09:32:50;97017.34;;;11.13;100.00
18858;BME280;9558;50.178;8.370;2023-10-31T09:35:37;97024.09;;;11.20;100.00
18858;BME280;9558;50.178;8.370;2023-10-31T09:38:25;97025.28;;;11.24;100.00
18858;BME280;9558;50.178;8.370;2023-10-31T09:41:13;97028.00;;;11.30;100.00
18858;BME280;9558;50.178;8.370;2023-10-31T09:44:00;97028.00;;;11.36;100.00
18858;BME280;9558;50.178;8.370;2023-10-31T09:46:47;97030.34;;;11.45;100.00
18858;BME280;9558;50.178;8.370;2023-10-31T09:49:34;97037.22;;;11.57;100.00
18858;BME280;9558;50.178;8.370;2023-10-31T09:52:22;97038.19;;;11.63;100.00
18858;BME280;9558;50.178;8.370;2023-10-31T09:55:10;97050.66;;;11.73;100.00
18858;BME280;9558;50.178;8.370;2023-10-31T09:57:58;97046.09;;;11.75;100.00
18858;BME280;9558;50.178;8.370;2023-10-31T10:00:44;97040.44;;;11.85;100.00
18858;BME280;9558;50.178;8.370;2023-10-31T10:03:31;97048.78;;;11.93;100.00
18858;BME280;9558;50.178;8.370;2023-10-31T10:06:19;97038.72;;;12.04;100.00
18858;BME280;9558;50.178;8.370;2023-10-31T10:09:09;97042.16;;;11.98;100.00
18858;BME280;9558;50.178;8.370;2023-10-31T10:11:58;97049.25;;;12.09;100.00
18858;BME280;9558;50.178;8.370;2023-10-31T10:14:45;97046.38;;;12.17;100.00
18858;BME280;9558;50.178;8.370;2023-10-31T10:17:32;97054.16;;;12.17;100.00
18858;BME280;9558;50.178;8.370;2023-10-31T10:20:20;97048.88;;;12.31;100.00
18858;BME280;9558;50.178;8.370;2023-10-31T10:23:07;97045.19;;;12.38;100.00
18858;BME280;9558;50.178;8.370;2023-10-31T10:25:55;97056.28;;;12.45;100.00
18858;BME280;9558;50.178;8.370;2023-10-31T10:28:46;97053.91;;;12.44;100.00
18858;BME280;9558;50.178;8.370;2023-10-31T10:31:33;97056.47;;;12.51;100.00
18858;BME280;9558;50.178;8.370;2023-10-31T10:34:20;97062.44;;;12.51;100.00
18858;BME280;9558;50.178;8.370;2023-10-31T10:37:08;97064.25;;;12.51;100.00
18858;BME280;9558;50.178;8.370;2023-10-31T10:39:56;97066.19;;;12.55;100.00
18858;BME280;9558;50.178;8.370;2023-10-31T10:42:46;97062.59;;;12.56;100.00
18858;BME280;9558;50.178;8.370;2023-10-31T10:45:38;97065.03;;;12.51;100.00
18858;BME280;9558;50.178;8.370;2023-10-31T10:48:26;97068.09;;;12.41;100.00
18858;BME280;9558;50.178;8.370;2023-10-31T10:51:15;97067.31;;;12.41;100.00
18858;BME280;9558;50.178;8.370;2023-10-31T10:54:09;97068.75;;;12.37;100.00
18858;BME280;9558;50.178;8.370;2023-10-31T10:57:05;97069.97;;;12.34;100.00
18858;BME280;9558;50.178;8.370;2023-10-31T10:59:58;97063.56;;;12.37;100.00
18858;BME280;9558;50.178;8.370;2023-10-31T11:02:51;97055.22;;;12.35;100.00
18858;BME280;9558;50.178;8.370;2023-10-31T11:05:38;97051.06;;;12.27;100.00
18858;BME280;9558;50.178;8.370;2023-10-31T11:08:27;97056.00;;;12.35;100.00
18858;BME280;9558;50.178;8.370;2023-10-31T11:11:14;97062.34;;;12.39;100.00
18858;BME280;9558;50.178;8.370;2023-10-31T11:14:02;97063.13;;;12.40;100.00
18858;BME280;9558;50.178;8.370;2023-10-31T11:16:52;97061.97;;;12.36;100.00
18858;BME280;9558;50.178;8.370;2023-10-31T11:19:41;97060.31;;;12.41;100.00
18858;BME280;9558;50.178;8.370;2023-10-31T11:22:36;97054.78;;;12.38;100.00
18858;BME280;9558;50.178;8.370;2023-10-31T11:25:23;97060.97;;;12.37;100.00
18858;BME280;9558;50.178;8.370;2023-10-31T11:28:12;97060.31;;;12.41;100.00
18858;BME280;9558;50.178;8.370;2023-10-31T11:30:59;97055.28;;;12.47;100.00
18858;BME280;9558;50.178;8.370;2023-10-31T11:33:48;97049.50;;;12.44;100.00
18858;BME280;9558;50.178;8.370;2023-10-31T11:36:36;97048.44;;;12.52;100.00
18858;BME280;9558;50.178;8.370;2023-10-31T11:39:23;97057.84;;;12.53;100.00
18858;BME280;9558;50.178;8.370;2023-10-31T11:42:17;97059.41;;;12.54;100.00
18858;BME280;9558;50.178;8.370;2023-10-31T11:45:05;97059.63;;;12.53;99.34
18858;BME280;9558;50.178;8.370;2023-10-31T11:47:54;97057.25;;;12.51;100.00
18858;BME280;9558;50.178;8.370;2023-10-31T11:50:42;97057.53;;;12.61;100.00
18858;BME280;9558;50.178;8.370;2023-10-31T11:53:30;97060.28;;;12.67;100.00
18858;BME280;9558;50.178;8.370;2023-10-31T11:56:18;97062.44;;;12.70;100.00
18858;BME280;9558;50.178;8.370;2023-10-31T11:59:05;97069.34;;;12.76;100.00
18858;BME280;9558;50.178;8.370;2023-10-31T12:01:59;97076.97;;;12.77;100.00
18858;BME280;9558;50.178;8.370;2023-10-31T12:04:45;97081.41;;;12.70;100.00
18858;BME280;9558;50.178;8.370;2023-10-31T12:07:41;97088.41;;;12.70;100.00
18858;BME280;9558;50.178;8.370;2023-10-31T12:10:29;97083.06;;;12.65;100.00
18858;BME280;9558;50.178;8.370;2023-10-31T12:13:17;97086.03;;;12.68;100.00
18858;BME280;9558;50.178;8.370;2023-10-31T12:16:05;97091.44;;;12.67;100.00
18858;BME280;9558;50.178;8.370;2023-10-31T12:18:56;97103.69;;;12.59;100.00
18858;BME280;9558;50.178;8.370;2023-10-31T12:21:44;97096.06;;;12.65;100.00
18858;BME280;9558;50.178;8.370;2023-10-31T12:24:33;97101.38;;;12.70;100.00
18858;BME280;9558;50.178;8.370;2023-10-31T12:27:21;97096.78;;;12.72;100.00
18858;BME280;9558;50.178;8.370;2023-10-31T12:30:08;97099.50;;;12.77;100.00
18858;BME280;9558;50.178;8.370;2023-10-31T12:32:56;97103.69;;;12.78;100.00
18858;BME280;9558;50.178;8.370;2023-10-31T12:35:44;97096.84;;;12.84;100.00
18858;BME280;9558;50.178;8.370;2023-10-31T12:38:31;97102.41;;;12.87;100.00
18858;BME280;9558;50.178;8.370;2023-10-31T12:41:18;97103.44;;;12.86;100.00
18858;BME280;9558;50.178;8.370;2023-10-31T12:44:08;97110.84;;;12.83;100.00
18858;BME280;9558;50.178;8.370;2023-10-31T12:46:56;97114.22;;;12.83;100.00
18858;BME280;9558;50.178;8.370;2023-10-31T12:49:43;97109.03;;;12.83;100.00
18858;BME280;9558;50.178;8.370;2023-10-31T12:52:45;97109.03;;;12.83;100.00
18858;BME280;9558;50.178;8.370;2023-10-31T12:55:38;97112.06;;;12.80;100.00
18858;BME280;9558;50.178;8.370;2023-10-31T12:58:25;97124.03;;;12.81;98.88
18858;BME280;9558;50.178;8.370;2023-10-31T13:01:13;97125.19;;;12.85;100.00
18858;BME280;9558;50.178;8.370;2023-10-31T13:04:01;97120.00;;;12.85;100.00
18858;BME280;9558;50.178;8.370;2023-10-31T13:06:55;97122.94;;;12.89;100.00
18858;BME280;9558;50.178;8.370;2023-10-31T13:09:42;97130.97;;;12.87;100.00
18858;BME280;9558;50.178;8.370;2023-10-31T13:12:30;97127.00;;;12.85;100.00
18858;BME280;9558;50.178;8.370;2023-10-31T13:15:18;97123.75;;;12.89;100.00
18858;BME280;9558;50.178;8.370;2023-10-31T13:18:06;97125.34;;;12.90;100.00
18858;BME280;9558;50.178;8.370;2023-10-31T13:20:56;97133.50;;;12.94;100.00
18858;BME280;9558;50.178;8.370;2023-10-31T13:23:43;97128.50;;;12.92;99.27
18858;BME280;9558;50.178;8.370;2023-10-31T13:26:33;97129.31;;;12.93;99.20
18858;BME280;9558;50.178;8.370;2023-10-31T13:29:20;97125.34;;;12.90;100.00
18858;BME280;9558;50.178;8.370;2023-10-31T13:32:07;97132.56;;;12.88;100.00
18858;BME280;9558;50.178;8.370;2023-10-31T13:34:55;97133.84;;;12.79;98.83
18858;BME280;9558;50.178;8.370;2023-10-31T13:37:42;97134.97;;;12.83;99.07
18858;BME280;9558;50.178;8.370;2023-10-31T13:40:29;97138.44;;;12.77;100.00
18858;BME280;9558;50.178;8.370;2023-10-31T13:43:16;97132.69;;;12.75;99.38
18858;BME280;9558;50.178;8.370;2023-10-31T13:46:03;97133.25;;;12.77;100.00
18858;BME280;9558;50.178;8.370;2023-10-31T13:48:50;97127.94;;;12.72;98.01
18858;BME280;9558;50.178;8.370;2023-10-31T13:51:38;97133.69;;;12.74;100.00
18858;BME280;9558;50.178;8.370;2023-10-31T13:54:25;97126.91;;;12.73;100.00
18858;BME280;9558;50.178;8.370;2023-10-31T13:57:12;97129.16;;;12.69;98.88
18858;BME280;9558;50.178;8.370;2023-10-31T13:59:58;97129.50;;;12.73;100.00
18858;BME280;9558;50.178;8.370;2023-10-31T14:02:46;97130.38;;;12.67;98.59
18858;BME280;9558;50.178;8.370;2023-10-31T14:05:32;97137.50;;;12.71;100.00
18858;BME280;9558;50.178;8.370;2023-10-31T14:08:20;97142.69;;;12.71;99.93
18858;BME280;9558;50.178;8.370;2023-10-31T14:11:07;97153.69;;;12.73;99.73
18858;BME280;9558;50.178;8.370;2023-10-31T14:13:54;97143.28;;;12.73;98.87
18858;BME280;9558;50.178;8.370;2023-10-31T14:16:42;97147.44;;;12.74;99.87
18858;BME280;9558;50.178;8.370;2023-10-31T14:19:30;97149.66;;;12.77;100.00
18858;BME280;9558;50.178;8.370;2023-10-31T14:22:16;97148.28;;;12.75;100.00
18858;BME280;9558;50.178;8.370;2023-10-31T14:25:06;97148.28;;;12.75;100.00
18858;BME280;9558;50.178;8.370;2023-10-31T14:27:53;97161.25;;;12.75;100.00
18858;BME280;9558;50.178;8.370;2023-10-31T14:30:40;97154.88;;;12.71;100.00
18858;BME280;9558;50.178;8.370;2023-10-31T14:33:26;97150.47;;;12.71;99.66
18858;BME280;9558;50.178;8.370;2023-10-31T14:36:15;97158.69;;;12.68;99.63
18858;BME280;9558;50.178;8.370;2023-10-31T14:39:02;97170.28;;;12.66;100.00
18858;BME280;9558;50.178;8.370;2023-10-31T14:41:51;97170.72;;;12.62;99.75
18858;BME280;9558;50.178;8.370;2023-10-31T14:44:38;97176.13;;;12.61;99.28
18858;BME280;9558;50.178;8.370;2023-10-31T14:47:25;97178.78;;;12.54;98.18
18858;BME280;9558;50.178;8.370;2023-10-31T14:50:12;97186.78;;;12.53;97.95